createdAt,value
2018-09-17T00:00:36.071Z,87.53
2018-09-17T00:01:36.074Z,87.02
2018-09-17T00:02:36.039Z,86.41
2018-09-17T00:03:36.026Z,86.16
2018-09-17T00:04:36.016Z,85.96
2018-09-17T00:05:36.005Z,86.16
2018-09-17T00:06:36.018Z,86.16
2018-09-17T00:07:35.977Z,86.06
2018-09-17T00:08:35.974Z,86.26
2018-09-17T00:09:35.954Z,86.26
2018-09-17T00:10:35.951Z,86.26
2018-09-17T00:11:35.959Z,84.88
2018-09-17T00:12:35.922Z,85.14
2018-09-17T00:13:35.908Z,85.35
2018-09-17T00:14:35.908Z,85.08
2018-09-17T00:15:35.894Z,85.08
2018-09-17T00:16:35.895Z,84.53
2018-09-17T00:17:35.865Z,84.67
2018-09-17T00:18:35.856Z,84.98
2018-09-17T00:19:35.843Z,84.88
2018-09-17T00:20:35.835Z,85.18
2018-09-17T00:21:35.842Z,84.57
2018-09-17T00:22:35.806Z,85.38
2018-09-17T00:23:35.795Z,85.32
2018-09-17T00:24:35.786Z,86.10
2018-09-17T00:25:35.770Z,84.88
2018-09-17T00:26:35.784Z,86.24
2018-09-17T00:27:35.752Z,85.63
2018-09-17T00:28:35.739Z,86.35
2018-09-17T00:29:35.724Z,86.55
2018-09-17T00:30:35.716Z,86.59
2018-09-17T00:31:35.726Z,86.79
2018-09-17T00:32:35.690Z,86.85
2018-09-17T00:33:35.680Z,87.06
2018-09-17T00:34:35.666Z,87.65
2018-09-17T00:35:35.656Z,87.10
2018-09-17T00:36:35.665Z,87.41
2018-09-17T00:37:35.637Z,87.65
2018-09-17T00:38:35.618Z,87.35
2018-09-17T00:39:35.611Z,87.04
2018-09-17T00:40:35.597Z,87.04
2018-09-17T00:41:35.604Z,87.76
2018-09-17T00:42:35.582Z,87.45
2018-09-17T00:43:35.559Z,87.96
2018-09-17T00:44:35.557Z,88.47
2018-09-17T00:45:35.542Z,89.29
2018-09-17T00:46:35.548Z,89.29
2018-09-17T00:47:35.522Z,89.18
2018-09-17T00:48:35.503Z,88.98
2018-09-17T00:49:35.494Z,89.09
2018-09-17T00:50:35.483Z,89.09
2018-09-17T00:51:35.494Z,88.68
2018-09-17T00:52:35.457Z,88.47
2018-09-17T00:53:35.442Z,89.39
2018-09-17T00:54:35.438Z,89.50
2018-09-17T00:55:35.427Z,88.47
2018-09-17T00:56:35.427Z,88.78
2018-09-17T00:57:35.398Z,88.68
2018-09-17T00:58:35.389Z,88.02
2018-09-17T00:59:35.380Z,87.14
2018-09-17T01:00:35.362Z,87.76
2018-09-17T01:01:35.371Z,87.96
2018-09-17T01:02:35.340Z,87.35
2018-09-17T01:03:35.330Z,87.55
2018-09-17T01:04:35.311Z,87.76
2018-09-17T01:05:35.298Z,87.85
2018-09-17T01:06:35.320Z,87.04
2018-09-17T01:07:35.278Z,86.73
2018-09-17T01:08:35.272Z,86.94
2018-09-17T01:09:35.259Z,87.79
2018-09-17T01:10:35.245Z,87.76
2018-09-17T01:11:35.247Z,87.24
2018-09-17T01:12:35.224Z,87.90
2018-09-17T01:13:35.205Z,87.45
2018-09-17T01:14:35.200Z,87.38
2018-09-17T01:15:35.180Z,87.14
2018-09-17T01:16:35.197Z,87.70
2018-09-17T01:17:35.156Z,87.96
2018-09-17T01:18:35.154Z,87.79
2018-09-17T01:19:35.134Z,87.79
2018-09-17T01:20:35.125Z,88.92
2018-09-17T01:21:35.133Z,88.41
2018-09-17T01:22:35.103Z,88.31
2018-09-17T01:23:35.090Z,88.62
2018-09-17T01:24:35.084Z,88.62
2018-09-17T01:25:35.067Z,88.51
2018-09-17T01:26:35.072Z,88.92
2018-09-17T01:27:35.039Z,88.41
2018-09-17T01:28:35.029Z,88.41
2018-09-17T01:29:35.016Z,88.51
2018-09-17T01:30:35.026Z,89.23
2018-09-17T01:31:35.027Z,89.33
2018-09-17T01:32:34.979Z,89.23
2018-09-17T01:33:34.973Z,89.03
2018-09-17T01:34:34.953Z,89.43
2018-09-17T01:35:34.939Z,89.12
2018-09-17T01:36:34.960Z,89.33
2018-09-17T01:37:34.916Z,89.64
2018-09-17T01:38:34.913Z,89.74
2018-09-17T01:39:34.893Z,89.53
2018-09-17T01:40:34.879Z,89.74
2018-09-17T01:41:34.897Z,89.59
2018-09-17T01:42:34.853Z,89.09
2018-09-17T01:43:34.849Z,88.98
2018-09-17T01:44:34.833Z,88.84
2018-09-17T01:45:34.819Z,88.74
2018-09-17T01:46:34.838Z,88.33
2018-09-17T01:47:34.794Z,88.23
2018-09-17T01:48:34.790Z,87.61
2018-09-17T01:49:34.768Z,87.51
2018-09-17T01:50:34.766Z,87.00
2018-09-17T01:51:34.776Z,86.96
2018-09-17T01:52:34.734Z,86.49
2018-09-17T01:53:34.723Z,86.49
2018-09-17T01:54:34.714Z,85.83
2018-09-17T01:55:34.707Z,86.44
2018-09-17T01:56:34.707Z,85.42
2018-09-17T01:57:34.683Z,85.42
2018-09-17T01:58:34.663Z,86.35
2018-09-17T01:59:34.654Z,85.94
2018-09-17T02:00:34.648Z,86.44
2018-09-17T02:01:34.656Z,84.91
2018-09-17T02:02:34.623Z,86.35
2018-09-17T02:03:34.608Z,85.22
2018-09-17T02:04:34.595Z,86.04
2018-09-17T02:05:34.588Z,85.63
2018-09-17T02:06:34.606Z,85.97
2018-09-17T02:07:34.560Z,86.24
2018-09-17T02:08:34.590Z,86.24
2018-09-17T02:09:34.598Z,86.04
2018-09-17T02:10:34.527Z,85.94
2018-09-17T02:11:34.517Z,86.55
2018-09-17T02:12:34.527Z,86.55
2018-09-17T02:13:34.486Z,86.44
2018-09-17T02:14:34.485Z,86.55
2018-09-17T02:15:34.466Z,86.18
2018-09-17T02:16:34.458Z,85.83
2018-09-17T02:17:34.442Z,86.65
2018-09-17T02:18:34.450Z,86.35
2018-09-17T02:19:34.426Z,86.96
2018-09-17T02:20:34.405Z,86.85
2018-09-17T02:21:34.397Z,85.88
2018-09-17T02:22:34.388Z,86.18
2018-09-17T02:23:34.394Z,86.49
2018-09-17T02:24:34.367Z,86.18
2018-09-17T02:25:34.354Z,86.49
2018-09-17T02:26:34.338Z,86.29
2018-09-17T02:27:34.336Z,86.79
2018-09-17T02:28:34.338Z,86.69
2018-09-17T02:29:34.309Z,85.83
2018-09-17T02:30:34.301Z,86.76
2018-09-17T02:31:34.281Z,86.44
2018-09-17T02:32:34.273Z,86.24
2018-09-17T02:33:34.259Z,86.14
2018-09-17T02:34:34.272Z,86.14
2018-09-17T02:35:34.235Z,86.76
2018-09-17T02:36:34.218Z,86.44
2018-09-17T02:37:34.213Z,86.44
2018-09-17T02:38:34.198Z,86.44
2018-09-17T02:39:34.196Z,86.76
2018-09-17T02:40:34.202Z,86.44
2018-09-17T02:41:34.166Z,85.94
2018-09-17T02:42:34.148Z,86.65
2018-09-17T02:43:34.136Z,86.90
2018-09-17T02:44:34.131Z,86.96
2018-09-17T02:45:34.110Z,86.90
2018-09-17T02:46:34.138Z,86.90
2018-09-17T02:47:34.093Z,87.20
2018-09-17T02:48:34.081Z,86.65
2018-09-17T02:49:34.068Z,86.49
2018-09-17T02:50:34.059Z,86.24
2018-09-17T02:51:34.043Z,86.44
2018-09-17T02:52:34.056Z,86.08
2018-09-17T02:53:34.083Z,86.38
2018-09-17T02:54:34.011Z,86.38
2018-09-17T02:55:33.993Z,86.49
2018-09-17T02:56:33.989Z,86.49
2018-09-17T05:53:49.160Z,84.44
2018-09-17T05:54:49.083Z,84.24
2018-09-17T05:55:49.062Z,84.44
2018-09-17T05:56:49.054Z,84.34
2018-09-17T05:57:49.048Z,84.34
2018-09-17T05:58:49.030Z,84.30
2018-09-17T05:59:49.046Z,84.00
2018-09-17T06:00:49.004Z,84.03
2018-09-17T06:01:49.003Z,84.20
2018-09-17T06:02:48.983Z,84.41
2018-09-17T06:03:48.980Z,84.41
2018-09-17T06:04:48.983Z,83.79
2018-09-17T06:05:48.957Z,83.95
2018-09-17T06:06:48.984Z,83.65
2018-09-17T06:07:48.929Z,83.48
2018-09-17T06:08:48.914Z,82.93
2018-09-17T06:09:49.013Z,82.63
2018-09-17T06:10:48.897Z,82.39
2018-09-17T06:11:48.955Z,81.71
2018-09-17T06:12:48.876Z,82.08
2018-09-17T06:13:48.861Z,81.98
2018-09-17T06:14:48.845Z,81.67
2018-09-17T06:15:48.870Z,81.46
2018-09-17T06:16:48.825Z,81.32
2018-09-17T06:17:48.819Z,81.32
2018-09-17T06:18:48.816Z,80.61
2018-09-17T06:19:48.790Z,80.71
2018-09-17T06:20:48.798Z,80.51
2018-09-17T06:21:48.775Z,80.37
2018-09-17T06:22:48.755Z,80.37
2018-09-17T06:23:48.745Z,79.75
2018-09-17T06:24:48.733Z,79.75
2018-09-17T06:25:48.748Z,79.55
2018-09-17T06:26:48.711Z,79.82
2018-09-17T06:27:48.702Z,78.60
2018-09-17T06:28:48.775Z,78.53
2018-09-17T06:29:48.674Z,78.30
2018-09-17T06:30:48.664Z,78.30
2018-09-17T06:31:48.677Z,77.75
2018-09-17T06:32:48.636Z,77.75
2018-09-17T06:33:48.634Z,77.24
2018-09-17T06:34:48.620Z,77.30
2018-09-17T06:35:48.604Z,76.69
2018-09-17T06:36:48.622Z,77.17
2018-09-17T06:37:48.586Z,76.79
2018-09-17T06:38:48.576Z,75.78
2018-09-17T06:39:48.554Z,76.35
2018-09-17T06:40:48.543Z,75.84
2018-09-17T06:41:48.540Z,75.64
2018-09-17T06:42:48.560Z,75.60
2018-09-17T06:43:48.511Z,75.30
2018-09-17T06:44:48.504Z,75.20
2018-09-17T06:45:48.496Z,74.18
2018-09-17T06:46:48.480Z,74.15
2018-09-17T06:47:48.496Z,73.74
2018-09-17T06:48:48.455Z,73.09
2018-09-17T06:49:48.445Z,73.19
2018-09-17T06:50:48.436Z,72.25
2018-09-17T06:51:48.418Z,72.14
2018-09-17T06:52:48.406Z,71.23
2018-09-17T06:53:48.448Z,70.38
2018-09-17T06:54:48.384Z,71.06
2018-09-17T06:55:48.384Z,70.65
2018-09-17T06:56:48.360Z,70.65
2018-09-17T06:57:48.353Z,69.91
2018-09-17T06:58:48.342Z,69.40
2018-09-17T06:59:48.351Z,69.47
2018-09-17T07:00:48.313Z,68.87
2018-09-17T07:01:48.309Z,67.85
2018-09-17T07:02:48.291Z,68.02
2018-09-17T07:03:48.283Z,67.28
2018-09-17T07:04:48.289Z,66.47
2018-09-17T07:05:48.266Z,66.16
2018-09-17T07:06:48.242Z,65.76
2018-09-17T07:07:48.240Z,65.73
2018-09-17T07:08:48.222Z,65.32
2018-09-17T07:09:48.235Z,64.61
2018-09-17T07:10:48.204Z,64.07
2018-09-17T07:11:48.185Z,64.45
2018-09-17T07:12:48.178Z,63.61
2018-09-17T07:13:48.170Z,64.45
2018-09-17T07:14:48.177Z,63.31
2018-09-17T07:15:48.149Z,63.28
2018-09-17T07:16:48.126Z,62.47
2018-09-17T07:17:48.125Z,62.27
2018-09-17T07:18:48.110Z,62.44
2018-09-17T07:19:48.095Z,61.13
2018-09-17T07:20:48.118Z,60.80
2018-09-17T07:21:48.071Z,61.30
2018-09-17T07:22:48.063Z,61.20
2018-09-17T07:23:48.054Z,61.30
2018-09-17T07:24:48.066Z,59.86
2018-09-17T07:25:48.033Z,60.03
2018-09-17T07:26:48.020Z,59.63
2018-09-17T07:27:48.004Z,59.22
2018-09-17T07:28:47.993Z,59.30
2018-09-17T07:29:47.983Z,58.80
2018-09-17T07:30:47.991Z,58.36
2018-09-17T07:31:47.960Z,58.14
2018-09-17T07:32:47.945Z,58.06
2018-09-17T07:33:47.936Z,57.96
2018-09-17T07:34:47.932Z,57.32
2018-09-17T07:35:47.939Z,57.73
2018-09-17T07:36:47.903Z,57.63
2018-09-17T07:37:47.887Z,57.23
2018-09-17T07:38:47.875Z,57.50
2018-09-17T07:39:47.872Z,57.40
2018-09-17T07:40:47.881Z,57.81
2018-09-17T07:41:47.871Z,57.50
2018-09-17T07:42:47.839Z,57.17
2018-09-17T07:43:47.821Z,56.87
2018-09-17T07:44:47.814Z,56.14
2018-09-17T07:45:47.805Z,56.95
2018-09-17T07:46:47.791Z,56.14
2018-09-17T07:47:47.832Z,56.31
2018-09-17T07:48:47.767Z,56.62
2018-09-17T07:49:47.760Z,55.99
2018-09-17T07:50:47.746Z,56.19
2018-09-17T07:51:47.729Z,55.08
2018-09-17T07:52:47.758Z,55.88
2018-09-17T07:53:47.714Z,56.36
2018-09-17T07:54:47.701Z,55.23
2018-09-17T07:55:47.679Z,54.80
2018-09-17T07:56:47.672Z,53.59
2018-09-17T07:57:47.660Z,53.39
2018-09-17T07:58:47.727Z,53.17
2018-09-17T07:59:47.636Z,53.17
2018-09-17T08:00:47.631Z,53.25
2018-09-17T08:01:47.612Z,51.14
2018-09-17T08:02:47.607Z,51.12
2018-09-17T08:03:47.589Z,51.49
2018-09-17T08:04:47.599Z,51.69
2018-09-17T08:05:47.648Z,51.37
2018-09-17T08:06:47.558Z,49.46
2018-09-17T08:07:47.553Z,49.84
2018-09-17T08:08:47.531Z,49.44
2018-09-17T08:09:47.557Z,49.34
2018-09-17T08:10:47.509Z,49.11
2018-09-17T08:11:47.507Z,49.11
2018-09-17T08:12:47.491Z,48.60
2018-09-17T08:13:47.482Z,48.49
2018-09-17T08:14:47.473Z,48.10
2018-09-17T08:15:47.475Z,47.95
2018-09-17T08:16:47.446Z,48.05
2018-09-17T08:17:47.434Z,47.65
2018-09-17T08:18:47.418Z,47.63
2018-09-17T08:19:47.471Z,47.40
2018-09-17T08:20:47.427Z,46.31
2018-09-17T08:21:47.394Z,46.61
2018-09-17T08:22:47.380Z,46.61
2018-09-17T08:23:47.372Z,45.68
2018-09-17T08:24:47.365Z,45.36
2018-09-17T08:25:47.340Z,45.06
2018-09-17T08:26:47.364Z,45.96
2018-09-17T08:27:47.325Z,45.84
2018-09-17T08:28:47.314Z,45.24
2018-09-17T08:29:47.302Z,45.84
2018-09-17T08:30:47.284Z,44.84
2018-09-17T08:31:47.283Z,44.84
2018-09-17T08:32:47.304Z,44.92
2018-09-17T08:33:47.257Z,44.72
2018-09-17T08:34:47.250Z,46.00
2018-09-17T08:35:47.230Z,44.31
2018-09-17T08:36:47.225Z,44.28
2018-09-17T08:37:47.213Z,44.08
2018-09-17T08:38:47.226Z,43.79
2018-09-17T08:39:47.187Z,43.08
2018-09-17T08:40:47.181Z,44.06
2018-09-17T08:41:47.168Z,43.96
2018-09-17T08:42:47.154Z,43.57
2018-09-17T08:43:47.179Z,42.65
2018-09-17T08:44:47.132Z,43.24
2018-09-17T08:45:47.131Z,43.05
2018-09-17T08:46:47.129Z,42.55
2018-09-17T08:47:47.107Z,42.75
2018-09-17T08:48:47.115Z,43.05
2018-09-17T08:49:47.107Z,43.15
2018-09-17T08:50:47.075Z,44.54
2018-09-17T08:51:47.057Z,43.42
2018-09-17T08:52:47.116Z,42.23
2018-09-17T08:53:47.033Z,42.33
2018-09-17T08:54:47.026Z,42.53
2018-09-17T08:55:47.041Z,42.53
2018-09-17T08:56:47.000Z,42.71
2018-09-17T08:57:46.998Z,43.10
2018-09-17T08:58:46.984Z,41.71
2018-09-17T08:59:46.967Z,43.01
2018-09-17T09:00:46.981Z,42.09
2018-09-17T09:01:46.952Z,41.60
2018-09-17T09:02:46.937Z,41.60
2018-09-17T09:03:46.924Z,41.50
2018-09-17T09:04:46.915Z,41.67
2018-09-17T09:05:46.925Z,40.98
2018-09-17T09:06:46.893Z,41.36
2018-09-17T09:07:46.889Z,39.95
2018-09-17T09:08:46.878Z,41.44
2018-09-17T09:09:46.861Z,39.55
2018-09-17T09:10:46.895Z,39.45
2018-09-17T09:11:46.843Z,39.43
2018-09-17T09:12:46.826Z,40.03
2018-09-17T09:13:46.818Z,40.60
2018-09-17T09:14:46.814Z,40.60
2018-09-17T09:15:46.845Z,39.61
2018-09-17T09:16:46.802Z,39.89
2018-09-17T09:17:46.782Z,41.57
2018-09-17T09:18:46.767Z,39.67
2018-09-17T09:19:46.757Z,39.18
2018-09-17T09:20:46.745Z,37.79
2018-09-17T09:21:46.760Z,37.99
2018-09-17T09:22:46.718Z,37.68
2018-09-17T09:23:46.709Z,37.87
2018-09-17T09:24:46.699Z,37.46
2018-09-17T09:25:46.693Z,37.46
2018-09-17T09:26:46.675Z,36.25
2018-09-17T09:27:46.696Z,37.24
2018-09-17T09:28:46.651Z,37.54
2018-09-17T09:29:46.648Z,37.92
2018-09-17T09:30:46.633Z,37.41
2018-09-17T09:31:46.628Z,37.21
2018-09-17T09:32:46.619Z,36.40
2018-09-17T09:33:46.619Z,36.09
2018-09-17T09:34:46.592Z,35.60
2018-09-17T09:35:46.584Z,35.48
2018-09-17T09:36:46.567Z,34.58
2018-09-17T09:37:46.558Z,34.95
2018-09-17T09:38:46.579Z,34.46
2018-09-17T09:39:46.537Z,34.25
2018-09-17T09:40:46.527Z,34.25
2018-09-17T09:41:46.523Z,33.54
2018-09-17T09:42:46.502Z,33.44
2018-09-17T09:43:46.504Z,33.54
2018-09-17T09:44:46.509Z,33.05
2018-09-17T09:45:46.478Z,32.34
2018-09-17T09:46:46.473Z,33.23
2018-09-17T09:47:46.455Z,32.24
2018-09-17T09:48:46.474Z,31.57
2018-09-17T09:49:46.431Z,31.20
2018-09-17T09:50:46.426Z,33.86
2018-09-17T09:51:46.417Z,33.65
2018-09-17T09:52:46.415Z,33.46
2018-09-17T09:53:46.391Z,33.75
2018-09-17T09:54:46.409Z,33.25
2018-09-17T09:55:46.364Z,31.95
2018-09-17T09:56:46.382Z,33.43
2018-09-17T09:57:46.344Z,33.43
2018-09-17T09:58:46.335Z,32.45
2018-09-17T09:59:46.357Z,32.26
2018-09-17T10:00:46.313Z,33.15
2018-09-17T10:01:46.309Z,33.56
2018-09-17T10:02:46.307Z,33.17
2018-09-17T10:03:46.285Z,33.38
2018-09-17T10:04:46.280Z,33.87
2018-09-17T10:05:46.287Z,33.48
2018-09-17T10:06:46.256Z,33.48
2018-09-17T10:07:46.242Z,32.69
2018-09-17T10:08:46.233Z,31.51
2018-09-17T10:09:46.225Z,34.39
2018-09-17T10:10:46.210Z,34.59
2018-09-17T10:11:46.226Z,34.08
2018-09-17T10:12:46.189Z,33.69
2018-09-17T10:13:46.175Z,34.58
2018-09-17T10:14:46.160Z,34.46
2018-09-17T10:15:46.162Z,33.58
2018-09-17T10:16:46.143Z,34.17
2018-09-17T10:17:46.159Z,33.56
2018-09-17T10:18:46.128Z,33.64
2018-09-17T10:19:46.108Z,33.84
2018-09-17T10:20:46.102Z,33.33
2018-09-17T10:21:46.096Z,33.23
2018-09-17T10:22:46.122Z,33.23
2018-09-17T10:23:46.075Z,32.93
2018-09-17T10:24:46.064Z,32.95
2018-09-17T10:25:46.046Z,32.64
2018-09-17T10:26:46.041Z,32.64
2018-09-17T10:27:46.031Z,30.68
2018-09-17T10:28:46.042Z,31.36
2018-09-17T10:29:46.050Z,31.38
2018-09-17T10:30:45.998Z,33.15
2018-09-17T10:31:45.991Z,33.82
2018-09-17T10:32:45.975Z,30.08
2018-09-17T10:33:46.004Z,32.24
2018-09-17T10:34:45.958Z,33.92
2018-09-17T10:35:45.952Z,32.72
2018-09-17T10:36:45.942Z,32.53
2018-09-17T10:37:45.928Z,32.31
2018-09-17T10:38:45.921Z,32.90
2018-09-17T10:39:45.938Z,32.81
2018-09-17T10:40:45.898Z,32.51
2018-09-17T10:41:45.890Z,31.41
2018-09-17T10:42:45.874Z,31.10
2018-09-17T10:43:45.872Z,29.27
2018-09-17T10:44:45.863Z,30.73
2018-09-17T10:45:45.874Z,32.51
2018-09-17T10:46:45.834Z,30.24
2018-09-17T10:47:45.832Z,31.64
2018-09-17T10:48:45.821Z,32.72
2018-09-17T10:49:45.809Z,32.71
2018-09-17T10:50:45.827Z,29.55
2018-09-17T10:51:45.788Z,30.02
2018-09-17T10:52:45.784Z,31.20
2018-09-17T10:53:45.773Z,30.71
2018-09-17T10:54:45.758Z,31.29
2018-09-17T10:55:45.758Z,29.11
2018-09-17T10:56:45.764Z,31.47
2018-09-17T10:57:45.723Z,28.15
2018-09-17T10:58:45.715Z,27.07
2018-09-17T10:59:45.710Z,30.32
2018-09-17T11:00:45.696Z,30.12
2018-09-17T11:01:45.689Z,30.30
2018-09-17T11:02:45.709Z,30.49
2018-09-17T11:03:45.663Z,27.24
2018-09-17T11:04:45.660Z,25.96
2018-09-17T11:05:45.649Z,27.64
2018-09-17T11:06:45.638Z,26.86
2018-09-17T11:07:45.662Z,26.78
2018-09-17T11:08:45.636Z,28.65
2018-09-17T11:09:45.608Z,30.12
2018-09-17T11:10:45.597Z,27.67
2018-09-17T11:11:45.588Z,27.97
2018-09-17T11:12:45.577Z,27.77
2018-09-17T11:13:45.600Z,28.65
2018-09-17T11:14:45.557Z,26.87
2018-09-17T11:15:45.542Z,31.27
2018-09-17T11:16:45.537Z,29.59
2018-09-17T11:17:45.623Z,31.62
2018-09-17T11:18:45.521Z,27.49
2018-09-17T11:19:45.528Z,29.83
2018-09-17T11:20:45.503Z,26.71
2018-09-17T11:21:45.477Z,27.98
2018-09-17T11:22:45.472Z,29.63
2018-09-17T11:23:45.484Z,26.49
2018-09-17T11:24:45.481Z,27.65
2018-09-17T11:25:45.442Z,27.83
2018-09-17T11:26:45.434Z,27.54
2018-09-17T11:27:45.429Z,29.49
2018-09-17T11:28:45.417Z,24.51
2018-09-17T11:29:45.399Z,24.73
2018-09-17T11:30:45.431Z,26.29
2018-09-17T11:31:45.378Z,26.10
2018-09-17T11:32:45.375Z,25.21
2018-09-17T11:33:45.373Z,28.92
2018-09-17T11:34:45.358Z,25.22
2018-09-17T11:35:45.340Z,24.64
2018-09-17T11:36:45.355Z,26.29
2018-09-17T11:37:45.329Z,28.74
2018-09-17T11:38:45.317Z,28.03
2018-09-17T11:39:45.304Z,28.89
2018-09-17T11:40:45.327Z,30.24
2018-09-17T11:41:45.316Z,25.54
2018-09-17T11:42:45.279Z,23.80
2018-09-17T11:43:45.259Z,25.95
2018-09-17T11:44:45.256Z,23.61
2018-09-17T11:45:45.242Z,23.72
2018-09-17T11:46:45.242Z,23.62
2018-09-17T11:47:45.256Z,26.56
2018-09-17T11:48:45.210Z,26.45
2018-09-17T11:49:45.214Z,25.18
2018-09-17T11:50:45.191Z,26.45
2018-09-17T11:51:45.189Z,24.89
2018-09-17T11:52:45.181Z,24.21
2018-09-17T11:53:45.206Z,26.92
2018-09-17T11:54:45.157Z,24.88
2018-09-17T11:55:45.146Z,22.53
2018-09-17T11:56:45.135Z,24.98
2018-09-17T11:57:45.129Z,24.18
2018-09-17T11:58:45.151Z,26.52
2018-09-17T11:59:45.104Z,25.04
2018-09-17T12:00:45.152Z,24.55
2018-09-17T12:01:45.100Z,27.16
2018-09-17T12:02:45.301Z,27.15
2018-09-17T12:03:45.983Z,27.72
2018-09-17T12:04:46.982Z,24.61
2018-09-17T12:05:45.077Z,23.07
2018-09-17T12:06:45.041Z,22.49
2018-09-17T12:07:45.030Z,23.97
2018-09-17T12:08:45.020Z,22.31
2018-09-17T12:09:45.007Z,24.67
2018-09-17T12:10:45.020Z,22.13
2018-09-17T12:11:44.999Z,26.03
2018-09-17T12:12:44.978Z,24.85
2018-09-17T12:13:44.966Z,26.10
2018-09-17T12:14:44.960Z,26.58
2018-09-17T12:15:44.964Z,23.75
2018-09-17T12:16:44.929Z,22.87
2018-09-17T12:17:44.925Z,21.88
2018-09-17T12:18:44.911Z,20.92
2018-09-17T12:19:44.906Z,21.91
2018-09-17T12:20:44.923Z,22.23
2018-09-17T12:21:44.892Z,23.72
2018-09-17T12:22:44.902Z,23.91
2018-09-17T12:23:44.865Z,25.86
2018-09-17T12:24:44.928Z,27.72
2018-09-17T12:25:44.870Z,27.02
2018-09-17T12:26:44.874Z,25.93
2018-09-17T12:27:44.830Z,24.85
2018-09-17T12:28:44.816Z,23.00
2018-09-17T12:29:44.839Z,25.04
2018-09-17T12:30:44.828Z,24.94
2018-09-17T12:31:44.808Z,27.95
2018-09-17T12:32:44.778Z,24.82
2018-09-17T12:33:44.851Z,26.57
2018-09-17T12:34:44.761Z,24.90
2018-09-17T12:35:44.749Z,25.57
2018-09-17T12:36:44.835Z,26.82
2018-09-17T12:37:44.731Z,23.50
2018-09-17T12:38:44.722Z,20.21
2018-09-17T12:39:44.703Z,20.72
2018-09-17T12:40:44.693Z,24.43
2018-09-17T12:41:44.692Z,24.51
2018-09-17T12:42:44.700Z,26.75
2018-09-17T12:43:44.845Z,25.27
2018-09-17T12:44:44.660Z,24.39
2018-09-17T12:45:44.694Z,22.25
2018-09-17T12:46:44.637Z,25.95
2018-09-17T12:47:44.660Z,23.60
2018-09-17T12:48:44.613Z,23.41
2018-09-17T12:49:44.724Z,22.62
2018-09-17T12:50:44.592Z,21.75
2018-09-17T12:51:44.592Z,24.77
2018-09-17T12:52:44.573Z,25.05
2018-09-17T12:53:44.604Z,24.08
2018-09-17T12:54:44.559Z,21.36
2018-09-17T12:55:44.657Z,21.94
2018-09-17T12:56:44.538Z,23.11
2018-09-17T12:57:44.530Z,22.63
2018-09-17T12:58:44.537Z,22.05
2018-09-17T12:59:44.540Z,22.24
2018-09-17T13:00:44.495Z,23.02
2018-09-17T13:01:44.663Z,19.81
2018-09-17T13:02:44.480Z,25.45
2018-09-17T13:03:44.469Z,24.77
2018-09-17T13:04:44.462Z,19.71
2018-09-17T13:05:44.475Z,21.67
2018-09-17T13:06:44.444Z,20.03
2018-09-17T13:07:44.451Z,20.52
2018-09-17T13:08:44.418Z,20.83
2018-09-17T13:09:44.414Z,21.62
2018-09-17T13:10:44.437Z,19.78
2018-09-17T13:11:44.385Z,21.36
2018-09-17T13:12:44.377Z,22.36
2018-09-17T13:13:44.375Z,23.25
2018-09-17T13:14:44.375Z,22.97
2018-09-17T13:15:44.348Z,22.87
2018-09-17T13:16:44.367Z,22.99
2018-09-17T13:17:44.337Z,26.14
2018-09-17T13:18:44.324Z,24.46
2018-09-17T13:19:44.304Z,26.01
2018-09-17T13:20:44.293Z,24.73
2018-09-17T13:21:44.293Z,24.42
2018-09-17T13:22:44.301Z,22.97
2018-09-17T13:23:44.268Z,22.37
2018-09-17T13:24:44.269Z,23.93
2018-09-17T13:25:44.254Z,27.93
2018-09-17T13:26:44.250Z,24.50
2018-09-17T13:27:44.253Z,23.80
2018-09-17T13:28:44.223Z,26.82
2018-09-17T13:29:44.214Z,25.93
2018-09-17T13:30:44.225Z,23.19
2018-09-17T13:31:44.184Z,22.51
2018-09-17T13:32:44.180Z,20.77
2018-09-17T13:33:44.198Z,21.46
2018-09-17T13:34:44.159Z,21.26
2018-09-17T13:35:44.151Z,22.25
2018-09-17T13:36:44.149Z,22.07
2018-09-17T13:37:44.130Z,24.60
2018-09-17T13:38:44.147Z,27.83
2018-09-17T13:39:44.114Z,24.79
2018-09-17T13:40:44.097Z,23.23
2018-09-17T13:41:44.090Z,20.97
2018-09-17T13:42:44.094Z,21.28
2018-09-17T13:43:44.064Z,22.17
2018-09-17T13:44:44.198Z,22.41
2018-09-17T13:45:44.053Z,22.81
2018-09-17T13:46:44.046Z,23.10
2018-09-17T13:47:44.029Z,22.91
2018-09-17T13:48:44.013Z,23.10
2018-09-17T13:49:44.008Z,24.19
2018-09-17T13:50:44.038Z,24.10
2018-09-17T13:51:44.001Z,24.19
2018-09-17T13:52:43.992Z,23.60
2018-09-17T13:53:43.970Z,25.48
2018-09-17T13:54:43.955Z,26.25
2018-09-17T13:55:43.942Z,22.72
2018-09-17T13:56:43.949Z,23.11
2018-09-17T13:57:43.927Z,23.32
2018-09-17T13:58:43.906Z,21.56
2018-09-17T13:59:43.904Z,25.10
2018-09-17T14:00:43.896Z,22.25
2018-09-17T14:01:43.952Z,26.76
2018-09-17T14:02:43.877Z,22.92
2018-09-17T14:03:43.867Z,24.11
2018-09-17T14:04:43.844Z,25.10
2018-09-17T14:05:43.840Z,20.87
2018-09-17T14:06:43.850Z,21.27
2018-09-17T14:07:43.826Z,23.82
2018-09-17T14:08:43.805Z,23.82
2018-09-17T14:09:43.804Z,22.35
2018-09-17T14:10:43.788Z,25.88
2018-09-17T14:11:43.796Z,22.34
2018-09-17T14:12:43.767Z,24.69
2018-09-17T14:13:43.755Z,22.45
2018-09-17T14:14:43.757Z,22.24
2018-09-17T14:15:43.733Z,22.34
2018-09-17T14:16:43.746Z,22.25
2018-09-17T14:17:43.765Z,21.75
2018-09-17T14:18:43.697Z,21.56
2018-09-17T14:19:43.695Z,21.45
2018-09-17T14:20:43.677Z,21.76
2018-09-17T14:21:43.681Z,22.25
2018-09-17T14:22:43.663Z,21.17
2018-09-17T14:23:43.668Z,24.80
2018-09-17T14:24:43.640Z,22.73
2018-09-17T14:25:43.637Z,20.57
2018-09-17T14:26:43.617Z,21.36
2018-09-17T14:27:43.640Z,20.87
2018-09-17T14:28:43.648Z,20.77
2018-09-17T14:29:43.583Z,20.88
2018-09-17T14:30:43.569Z,21.08
2018-09-17T14:31:43.570Z,21.97
2018-09-17T14:32:43.619Z,22.46
2018-09-17T14:33:43.570Z,26.07
2018-09-17T14:34:43.559Z,23.33
2018-09-17T14:35:43.524Z,21.56
2018-09-17T14:36:43.507Z,21.38
2018-09-17T14:37:43.509Z,23.05
2018-09-17T14:38:43.523Z,24.91
2018-09-17T14:39:43.478Z,23.63
2018-09-17T14:40:43.473Z,21.09
2018-09-17T14:41:43.477Z,21.39
2018-09-17T14:42:43.446Z,25.90
2018-09-17T14:43:43.491Z,23.06
2018-09-17T14:44:43.446Z,21.69
2018-09-17T14:45:43.420Z,22.58
2018-09-17T14:46:43.409Z,23.28
2018-09-17T14:47:43.406Z,22.31
2018-09-17T14:48:43.382Z,22.80
2018-09-17T14:49:43.408Z,24.76
2018-09-17T14:50:43.362Z,25.55
2018-09-17T14:51:43.354Z,25.17
2018-09-17T14:52:43.338Z,26.05
2018-09-17T14:53:43.332Z,25.85
2018-09-17T14:54:43.416Z,25.08
2018-09-17T14:55:43.339Z,21.44
2018-09-17T14:56:43.326Z,25.08
2018-09-17T14:57:43.284Z,23.91
2018-09-17T14:58:43.274Z,23.03
2018-09-17T14:59:43.261Z,23.72
2018-09-17T15:00:43.281Z,25.29
2018-09-17T15:01:43.335Z,22.25
2018-09-17T15:02:43.233Z,25.50
2018-09-17T15:03:43.216Z,22.74
2018-09-17T15:04:43.223Z,26.20
2018-09-17T15:05:43.191Z,24.13
2018-09-17T15:06:43.219Z,24.54
2018-09-17T15:07:43.183Z,22.78
2018-09-17T15:08:43.304Z,23.57
2018-09-17T15:09:43.156Z,24.55
2018-09-17T15:10:43.137Z,26.32
2018-09-17T15:11:43.134Z,27.42
2018-09-17T15:12:43.157Z,27.62
2018-09-17T15:13:43.128Z,28.61
2018-09-17T15:14:43.099Z,30.19
2018-09-17T15:15:43.093Z,24.56
2018-09-17T15:16:43.072Z,24.08
2018-09-17T15:17:43.063Z,23.80
2018-09-17T15:18:43.076Z,25.59
2018-09-17T15:19:43.036Z,24.40
2018-09-17T15:20:43.050Z,25.39
2018-09-17T15:21:43.030Z,24.71
2018-09-17T15:22:43.015Z,24.43
2018-09-17T15:23:43.069Z,24.04
2018-09-17T15:24:42.982Z,25.52
2018-09-17T15:25:42.979Z,24.73
2018-09-17T15:26:42.972Z,25.82
2018-09-17T15:27:42.945Z,24.04
2018-09-17T15:28:42.963Z,24.65
2018-09-17T15:29:42.962Z,25.14
2018-09-17T15:30:42.933Z,24.95
2018-09-17T15:31:42.903Z,24.95
2018-09-17T15:32:42.895Z,24.25
2018-09-17T15:33:42.977Z,25.14
2018-09-17T15:34:42.867Z,24.74
2018-09-17T15:35:42.900Z,25.34
2018-09-17T15:36:42.867Z,26.03
2018-09-17T15:37:42.840Z,25.95
2018-09-17T15:38:42.854Z,24.95
2018-09-17T15:39:42.842Z,25.35
2018-09-17T15:40:42.879Z,24.85
2018-09-17T15:41:42.811Z,25.55
2018-09-17T15:42:42.801Z,25.35
2018-09-17T15:43:42.770Z,26.34
2018-09-17T15:44:42.767Z,25.46
2018-09-17T15:45:42.750Z,25.96
2018-09-17T15:46:42.829Z,25.26
2018-09-17T15:47:42.722Z,25.26
2018-09-17T15:48:42.724Z,25.37